Time;durP1;ratioP1;P1;durP2;ratioP2;P2;SDS_P1;SDS_P2;PMS_P1;PMS_P2;Temp;Humidity;BMP_temperature;BMP_pressure;BME280_temperature;BME280_humidity;BME280_pressure;Samples;Min_cycle;Max_cycle;Signal;HPM_P1;HPM_P2
2021/04/25 00:01:37;;;;;;;;;;;;;;;;;;4947901;29;19933;-66
2021/04/25 00:04:03;;;;;;;;;;;;;;;;;;4945765;28;19931;-65
2021/04/25 00:06:30;;;;;;;;;;;;;;;;;;4944744;28;19934;-65
2021/04/25 00:08:56;;;;;;;;;;;;;;;;;;4940870;29;19949;-65
2021/04/25 00:11:23;;;;;;;;;;;;;;;;;;4946307;29;19934;-66
2021/04/25 00:13:49;;;;;;;;;;;;;;;;;;4948733;28;20426;-66
2021/04/25 00:16:15;;;;;;;;;;;;;;;;;;4948356;28;19934;-66
2021/04/25 00:18:42;;;;;;;;;;;;;;;;;;4943751;28;19927;-67
2021/04/25 00:21:08;;;;;;;;;;;;;;;;;;4940128;29;19927;-65
2021/04/25 00:23:35;;;;;;;;;;;;;;;;;;4947724;28;20017;-65
2021/04/25 00:26:01;;;;;;;;;;;;;;;;;;4950361;28;20476;-65
2021/04/25 00:28:28;;;;;;;;;;;;;;;;;;4939628;29;20088;-66
2021/04/25 00:30:54;;;;;;;;;;;;;;;;;;4940643;29;20037;-66
2021/04/25 00:33:21;;;;;;;;;;;;;;;;;;4950347;28;19954;-66
2021/04/25 00:35:47;;;;;;;;;;;;;;;;;;4949802;29;19926;-66
2021/04/25 00:38:14;;;;;;;;;;;;;;;;;;4947386;28;19933;-65
2021/04/25 00:40:40;;;;;;;;;;;;;;;;;;4949030;29;19926;-66
2021/04/25 00:43:07;;;;;;;;;;;;;;;;;;4949378;29;19934;-66
2021/04/25 00:45:33;;;;;;;;;;;;;;;;;;4948266;29;19935;-66
2021/04/25 00:47:59;;;;;;;;;;;;;;;;;;4944972;29;19927;-65
2021/04/25 00:50:26;;;;;;;;;;;;;;;;;;4944819;29;20478;-66
2021/04/25 00:52:55;;;;;;;;;;;;;;;;;;4951084;29;19927;-66
2021/04/25 00:55:21;;;;;;;;;;;;;;;;;;4944989;28;19930;-65
2021/04/25 00:57:48;;;;;;;;;;;;;;;;;;4946175;29;19926;-65
2021/04/25 01:00:14;;;;;;;;;;;;;;;;;;4944727;28;20439;-66
2021/04/25 01:02:41;;;;;;;;;;;;;;;;;;4949486;28;20363;-66
2021/04/25 01:05:07;;;;;;;;;;;;;;;;;;4945886;28;19930;-65
2021/04/25 01:07:34;;;;;;;;;;;;;;;;;;4948116;28;19926;-65
2021/04/25 01:10:00;;;;;;;;;;;;;;;;;;4947930;29;19930;-65
2021/04/25 01:12:27;;;;;;;;;;;;;;;;;;4943240;28;20444;-64
2021/04/25 01:14:53;;;;;;;;;;;;;;;;;;4943025;28;19927;-66
2021/04/25 01:17:20;;;;;;;;;;;;;;;;;;4941487;28;19926;-65
2021/04/25 01:19:46;;;;;;;;;;;;;;;;;;4941403;28;20097;-65
2021/04/25 01:22:13;;;;;;;;;;;;;;;;;;4941627;29;19926;-65
2021/04/25 01:24:39;;;;;;;;;;;;;;;;;;4942050;29;19926;-65
2021/04/25 01:27:06;;;;;;;;;;;;;;;;;;4945749;29;19930;-65
2021/04/25 01:29:32;;;;;;;;;;;;;;;;;;4947229;28;19948;-65
2021/04/25 01:31:59;;;;;;;;;;;;;;;;;;4947826;28;20026;-65
2021/04/25 01:34:25;;;;;;;;;;;;;;;;;;4942912;28;19937;-66
2021/04/25 01:36:56;;;;;;;;;;;;;;;;;;4941416;28;20049;-66
2021/04/25 01:39:22;;;;;;;;;;;;;;;;;;4941903;28;19996;-65
2021/04/25 01:41:49;;;;;;;;;;;;;;;;;;4944947;29;20189;-66
2021/04/25 01:44:15;;;;;;;;;;;;;;;;;;4946382;29;19960;-65
2021/04/25 01:46:42;;;;;;;;;;;;;;;;;;4946018;28;19988;-65
2021/04/25 01:49:08;;;;;;;;;;;;;;;;;;4946691;28;19926;-66
2021/04/25 01:51:35;;;;;;;;;;;;;;;;;;4946971;28;19931;-65
2021/04/25 01:54:01;;;;;;;;;;;;;;;;;;4949310;28;20345;-65
2021/04/25 01:56:28;;;;;;;;;;;;;;;;;;4947099;29;19971;-65
2021/04/25 01:58:54;;;;;;;;;;;;;;;;;;4953283;28;19927;-66
2021/04/25 02:01:21;;;;;;;;;;;;;;;;;;4947956;28;19933;-66
2021/04/25 02:03:47;;;;;;;;;;;;;;;;;;4943448;28;19933;-66
2021/04/25 02:06:14;;;;;;;;;;;;;;;;;;4952518;29;20498;-66
2021/04/25 02:08:40;;;;;;;;;;;;;;;;;;4944847;29;19980;-66
2021/04/25 02:11:07;;;;;;;;;;;;;;;;;;4951955;29;19980;-65
2021/04/25 02:13:33;;;;;;;;;;;;;;;;;;4950370;29;19927;-65
2021/04/25 02:16:00;;;;;;;;;;;;;;;;;;4954270;28;19937;-65
2021/04/25 02:18:26;;;;;;;;;;;;;;;;;;4949062;29;20213;-66
2021/04/25 02:20:53;;;;;;;;;;;;;;;;;;4950805;28;19930;-66
2021/04/25 02:23:19;;;;;;;;;;;;;;;;;;4949940;28;19959;-65
2021/04/25 02:25:46;;;;;;;;;;;;;;;;;;4944584;29;19930;-65
2021/04/25 02:28:12;;;;;;;;;;;;;;;;;;4946882;28;19926;-65
2021/04/25 02:30:38;;;;;;;;;;;;;;;;;;4961877;28;19926;-65
2021/04/25 02:33:05;;;;;;;;;;;;;;;;;;4965651;28;20017;-65
2021/04/25 02:35:31;;;;;;;;;;;;;;;;;;4946206;29;19934;-65
2021/04/25 02:37:58;;;;;;;;;;;;;;;;;;4947298;28;19933;-65
2021/04/25 02:40:24;;;;;;;;;;;;;;;;;;4947207;28;19927;-65
2021/04/25 02:42:51;;;;;;;;;;;;;;;;;;4939134;28;20168;-65
2021/04/25 02:45:17;;;;;;;;;;;;;;;;;;4947973;28;20407;-67
2021/04/25 02:47:44;;;;;;;;;;;;;;;;;;4946344;28;19927;-65
2021/04/25 02:50:10;;;;;;;;;;;;;;;;;;4942764;29;20094;-66
2021/04/25 02:52:37;;;;;;;;;;;;;;;;;;4950078;29;20009;-66
2021/04/25 02:55:03;;;;;;;;;;;;;;;;;;4952556;29;19926;-65
2021/04/25 02:57:30;;;;;;;;;;;;;;;;;;4942954;28;19927;-65
2021/04/25 02:59:59;;;;;;;;;;;;;;;;;;4947570;29;19932;-66
2021/04/25 03:02:25;;;;;;;;;;;;;;;;;;4946081;28;19952;-66
2021/04/25 03:04:51;;;;;;;;;;;;;;;;;;4945600;29;19926;-66
2021/04/25 03:07:18;;;;;;;;;;;;;;;;;;4946522;28;19935;-65
2021/04/25 03:09:44;;;;;;;;;;;;;;;;;;4949159;29;19952;-66
2021/04/25 03:12:11;;;;;;;;;;;;;;;;;;4947842;29;20000;-65
2021/04/25 03:14:37;;;;;;;;;;;;;;;;;;4948822;28;19931;-67
2021/04/25 03:17:04;;;;;;;;;;;;;;;;;;4955653;28;19993;-65
2021/04/25 03:19:30;;;;;;;;;;;;;;;;;;4950252;28;19942;-66
2021/04/25 03:21:57;;;;;;;;;;;;;;;;;;4948506;29;20407;-68
2021/04/25 03:24:23;;;;;;;;;;;;;;;;;;4952712;28;19926;-65
2021/04/25 03:26:50;;;;;;;;;;;;;;;;;;4942446;29;20408;-66
2021/04/25 03:29:16;;;;;;;;;;;;;;;;;;4943192;28;19926;-65
2021/04/25 03:31:43;;;;;;;;;;;;;;;;;;4945331;28;20386;-65
2021/04/25 03:34:09;;;;;;;;;;;;;;;;;;4946133;28;21369;-66
2021/04/25 03:36:36;;;;;;;;;;;;;;;;;;4942876;29;19933;-67
2021/04/25 03:39:02;;;;;;;;;;;;;;;;;;4945063;29;20383;-65
2021/04/25 03:41:29;;;;;;;;;;;;;;;;;;4941110;28;19926;-66
2021/04/25 03:43:55;;;;;;;;;;;;;;;;;;4949620;28;19934;-72
2021/04/25 03:46:22;;;;;;;;;;;;;;;;;;4949931;28;19930;-66
2021/04/25 03:48:48;;;;;;;;;;;;;;;;;;4942468;28;19935;-66
2021/04/25 03:51:15;;;;;;;;;;;;;;;;;;4948349;28;20456;-66
2021/04/25 03:53:41;;;;;;;;;;;;;;;;;;4942484;29;19927;-66
2021/04/25 03:56:08;;;;;;;;;;;;;;;;;;4945680;28;19927;-67
2021/04/25 03:58:34;;;;;;;;;;;;;;;;;;4943941;28;19927;-66
2021/04/25 04:01:01;;;;;;;;;;;;;;;;;;4940220;28;20273;-66
2021/04/25 04:03:27;;;;;;;;;;;;;;;;;;4945725;29;19933;-66
2021/04/25 04:05:53;;;;;;;;;;;;;;;;;;4944300;28;19926;-66
2021/04/25 04:08:20;;;;;;;;;;;;;;;;;;4945144;29;20396;-67
2021/04/25 04:10:46;;;;;;;;;;;;;;;;;;4941763;29;19933;-66
2021/04/25 04:13:13;;;;;;;;;;;;;;;;;;4942618;28;20013;-67
2021/04/25 04:15:39;;;;;;;;;;;;;;;;;;4943858;28;19926;-66
2021/04/25 04:18:06;;;;;;;;;;;;;;;;;;4948579;29;20408;-66
2021/04/25 04:20:33;;;;;;;;;;;;;;;;;;4947132;28;19973;-66
2021/04/25 04:22:59;;;;;;;;;;;;;;;;;;4947085;29;19930;-67
2021/04/25 04:25:26;;;;;;;;;;;;;;;;;;4948582;29;19941;-66
2021/04/25 04:27:52;;;;;;;;;;;;;;;;;;4940380;29;19926;-66
2021/04/25 04:30:19;;;;;;;;;;;;;;;;;;4951791;28;20013;-66
2021/04/25 04:32:45;;;;;;;;;;;;;;;;;;4943914;28;20307;-69
2021/04/25 04:35:12;;;;;;;;;;;;;;;;;;4943638;28;19941;-66
2021/04/25 04:37:38;;;;;;;;;;;;;;;;;;4942931;28;20419;-67
2021/04/25 04:40:05;;;;;;;;;;;;;;;;;;4948322;28;19931;-65
2021/04/25 04:42:31;;;;;;;;;;;;;;;;;;4944836;28;19977;-66
2021/04/25 04:44:58;;;;;;;;;;;;;;;;;;4944114;28;19930;-66
2021/04/25 04:47:24;;;;;;;;;;;;;;;;;;4938762;29;20384;-66
2021/04/25 04:49:51;;;;;;;;;;;;;;;;;;4945323;28;19927;-66
2021/04/25 04:52:17;;;;;;;;;;;;;;;;;;4945942;28;19927;-65
2021/04/25 04:54:45;;;;;;;;;;;;;;;;;;4949539;28;20401;-65
2021/04/25 04:57:12;;;;;;;;;;;;;;;;;;4948937;29;19982;-66
2021/04/25 04:59:39;;;;;;;;;;;;;;;;;;4948879;28;19933;-65
2021/04/25 05:02:05;;;;;;;;;;;;;;;;;;4943183;29;19998;-66
2021/04/25 05:04:32;;;;;;;;;;;;;;;;;;4946943;28;19926;-65
2021/04/25 05:06:58;;;;;;;;;;;;;;;;;;4944048;29;20296;-65
2021/04/25 05:09:24;;;;;;;;;;;;;;;;;;4944410;28;19937;-68
2021/04/25 05:11:51;;;;;;;;;;;;;;;;;;4943759;28;20398;-66
2021/04/25 05:14:17;;;;;;;;;;;;;;;;;;4947243;29;19960;-65
2021/04/25 05:16:44;;;;;;;;;;;;;;;;;;4941710;28;20064;-66
2021/04/25 05:19:10;;;;;;;;;;;;;;;;;;4939324;29;20021;-65
2021/04/25 05:21:37;;;;;;;;;;;;;;;;;;4935613;28;19972;-64
2021/04/25 05:24:03;;;;;;;;;;;;;;;;;;4945318;28;20504;-65
2021/04/25 05:26:30;;;;;;;;;;;;;;;;;;4946345;28;19927;-66
2021/04/25 05:28:56;;;;;;;;;;;;;;;;;;4945976;28;20313;-66
2021/04/25 05:31:23;;;;;;;;;;;;;;;;;;4946058;28;19927;-65
2021/04/25 05:33:49;;;;;;;;;;;;;;;;;;4941057;29;19927;-65
2021/04/25 05:36:16;;;;;;;;;;;;;;;;;;4939983;28;20068;-65
2021/04/25 05:38:42;;;;;;;;;;;;;;;;;;4943145;28;20037;-66
2021/04/25 05:41:09;;;;;;;;;;;;;;;;;;4942673;28;19927;-65
2021/04/25 05:43:35;;;;;;;;;;;;;;;;;;4939772;29;19937;-64
2021/04/25 05:46:02;;;;;;;;;;;;;;;;;;4947768;28;19933;-65
2021/04/25 05:48:28;;;;;;;;;;;;;;;;;;4945254;28;19934;-65
2021/04/25 05:50:55;;;;;;;;;;;;;;;;;;4942508;28;19930;-67
2021/04/25 05:53:21;;;;;;;;;;;;;;;;;;4940567;28;20017;-66
2021/04/25 05:55:48;;;;;;;;;;;;;;;;;;4942609;28;19926;-66
2021/04/25 05:58:14;;;;;;;;;;;;;;;;;;4942369;28;20385;-66
2021/04/25 06:00:41;;;;;;;;;;;;;;;;;;4941058;29;20202;-66
2021/04/25 06:03:07;;;;;;;;;;;;;;;;;;4944448;28;19972;-66
2021/04/25 06:05:33;;;;;;;;;;;;;;;;;;4944544;28;19987;-66
2021/04/25 06:08:00;;;;;;;;;;;;;;;;;;4941379;28;19931;-66
2021/04/25 06:10:27;;;;;;;;;;;;;;;;;;4940669;28;20025;-66
2021/04/25 06:12:53;;;;;;;;;;;;;;;;;;4940431;28;19934;-66
2021/04/25 06:15:20;;;;;;;;;;;;;;;;;;4942593;28;19927;-67
2021/04/25 06:17:46;;;;;;;;;;;;;;;;;;4943096;29;20349;-65
2021/04/25 06:20:13;;;;;;;;;;;;;;;;;;4947747;28;19927;-66
2021/04/25 06:22:39;;;;;;;;;;;;;;;;;;4945383;28;19946;-67
2021/04/25 06:25:06;;;;;;;;;;;;;;;;;;4946979;28;20013;-67
2021/04/25 06:27:32;;;;;;;;;;;;;;;;;;4946235;28;20207;-66
2021/04/25 06:29:59;;;;;;;;;;;;;;;;;;4939261;28;20379;-66
2021/04/25 06:32:25;;;;;;;;;;;;;;;;;;4939172;29;19930;-66
2021/04/25 06:34:52;;;;;;;;;;;;;;;;;;4942254;29;19927;-67
2021/04/25 06:37:18;;;;;;;;;;;;;;;;;;4947829;28;20379;-67
2021/04/25 06:39:45;;;;;;;;;;;;;;;;;;4946015;28;20017;-67
2021/04/25 06:42:11;;;;;;;;;;;;;;;;;;4944800;28;20350;-67
2021/04/25 06:44:38;;;;;;;;;;;;;;;;;;4946800;28;19931;-66
2021/04/25 06:47:04;;;;;;;;;;;;;;;;;;4958801;28;19976;-66
2021/04/25 06:49:31;;;;;;;;;;;;;;;;;;4937632;28;19985;-67
2021/04/25 06:51:59;;;;;;;;;;;;;;;;;;4950806;29;19933;-66
2021/04/25 06:54:26;;;;;;;;;;;;;;;;;;4949207;28;20000;-67
2021/04/25 06:56:53;;;;;;;;;;;;;;;;;;4946869;29;19935;-67
2021/04/25 06:59:19;;;;;;;;;;;;;;;;;;4945259;29;19926;-66
2021/04/25 07:01:45;;;;;;;;;;;;;;;;;;4950271;28;19926;-67
2021/04/25 07:04:12;;;;;;;;;;;;;;;;;;4940689;28;19972;-66
2021/04/25 07:06:38;;;;;;;;;;;;;;;;;;4946880;28;19938;-67
2021/04/25 07:09:05;;;;;;;;;;;;;;;;;;4941310;28;20049;-66
2021/04/25 07:11:31;;;;;;;;;;;;;;;;;;4947289;28;19989;-66
2021/04/25 07:13:58;;;;;;;;;;;;;;;;;;4938732;28;19934;-66
2021/04/25 07:16:24;;;;;;;;;;;;;;;;;;4943903;29;19959;-66
2021/04/25 07:18:51;;;;;;;;;;;;;;;;;;4942750;28;19934;-66
2021/04/25 07:21:17;;;;;;;;;;;;;;;;;;4937263;29;19926;-66
2021/04/25 07:23:44;;;;;;;;;;;;;;;;;;4949305;28;19926;-66
2021/04/25 07:26:12;;;;;;;;;;;;;;;;;;4942253;29;20030;-66
2021/04/25 07:28:38;;;;;;;;;;;;;;;;;;4938095;29;19930;-66
2021/04/25 07:31:05;;;;;;;;;;;;;;;;;;4949964;28;20378;-66
2021/04/25 07:33:32;;;;;;;;;;;;;;;;;;4950469;28;19926;-66
2021/04/25 07:35:59;;;;;;;;;;;;;;;;;;4946009;28;19927;-66
2021/04/25 07:38:25;;;;;;;;;;;;;;;;;;4939251;28;20288;-66
2021/04/25 07:40:52;;;;;;;;;;;;;;;;;;4941242;29;20303;-67
2021/04/25 07:43:18;;;;;;;;;;;;;;;;;;4943274;28;19927;-66
2021/04/25 07:45:45;;;;;;;;;;;;;;;;;;4945281;29;19969;-66
2021/04/25 07:48:11;;;;;;;;;;;;;;;;;;4961170;28;20054;-67
2021/04/25 07:50:38;;;;;;;;;;;;;;;;;;4950713;28;19927;-66
2021/04/25 07:53:04;;;;;;;;;;;;;;;;;;4945447;28;20295;-67
2021/04/25 07:55:31;;;;;;;;;;;;;;;;;;4944167;29;19927;-66
2021/04/25 07:57:57;;;;;;;;;;;;;;;;;;4948182;28;19926;-66
2021/04/25 08:00:24;;;;;;;;;;;;;;;;;;4946579;29;20021;-66
2021/04/25 08:02:50;;;;;;;;;;;;;;;;;;4946943;28;20555;-66
2021/04/25 08:05:17;;;;;;;;;;;;;;;;;;4945765;28;19974;-67
2021/04/25 08:07:45;;;;;;;;;;;;;;;;;;4942634;28;19933;-67
2021/04/25 08:10:11;;;;;;;;;;;;;;;;;;4947348;29;19934;-67
2021/04/25 08:12:38;;;;;;;;;;;;;;;;;;4936792;29;20407;-67
2021/04/25 08:15:04;;;;;;;;;;;;;;;;;;4946714;28;19926;-67
2021/04/25 08:17:31;;;;;;;;;;;;;;;;;;4947390;29;20353;-67
2021/04/25 08:19:57;;;;;;;;;;;;;;;;;;4944453;28;19949;-67
2021/04/25 08:22:24;;;;;;;;;;;;;;;;;;4946551;28;19933;-67
2021/04/25 08:24:50;;;;;;;;;;;;;;;;;;4949606;28;19926;-66
2021/04/25 08:27:17;;;;;;;;;;;;;;;;;;4943650;29;19979;-66
2021/04/25 08:29:43;;;;;;;;;;;;;;;;;;4948017;28;20337;-66
2021/04/25 08:32:10;;;;;;;;;;;;;;;;;;4942548;28;20379;-67
2021/04/25 08:34:36;;;;;;;;;;;;;;;;;;4945501;29;20006;-66
2021/04/25 08:37:03;;;;;;;;;;;;;;;;;;4947118;28;19935;-66
2021/04/25 08:39:29;;;;;;;;;;;;;;;;;;4943989;28;20363;-66
2021/04/25 08:41:55;;;;;;;;;;;;;;;;;;4939333;29;19933;-66
2021/04/25 08:44:22;;;;;;;;;;;;;;;;;;4941682;28;19927;-66
2021/04/25 08:46:48;;;;;;;;;;;;;;;;;;4933202;29;19926;-66
2021/04/25 08:49:15;;;;;;;;;;;;;;;;;;4950250;28;19937;-66
2021/04/25 08:51:42;;;;;;;;;;;;;;;;;;4945231;28;19934;-66
2021/04/25 08:54:08;;;;;;;;;;;;;;;;;;4969564;28;20462;-67
2021/04/25 08:56:35;;;;;;;;;;;;;;;;;;4946110;28;19930;-67
2021/04/25 08:59:01;;;;;;;;;;;;;;;;;;4938037;28;20395;-66
2021/04/25 09:01:28;;;;;;;;;;;;;;;;;;4946690;28;19926;-66
2021/04/25 09:03:54;;;;;;;;;;;;;;;;;;4942369;28;19970;-66
2021/04/25 09:06:21;;;;;;;;;;;;;;;;;;4944532;28;19926;-67
2021/04/25 09:08:48;;;;;;;;;;;;;;;;;;4953456;28;20387;-66
2021/04/25 09:11:15;;;;;;;;;;;;;;;;;;4948069;29;20428;-66
2021/04/25 09:13:41;;;;;;;;;;;;;;;;;;4943295;29;20041;-67
2021/04/25 09:16:08;;;;;;;;;;;;;;;;;;4944373;28;19954;-67
2021/04/25 09:18:34;;;;;;;;;;;;;;;;;;4940180;28;19930;-66
2021/04/25 09:21:01;;;;;;;;;;;;;;;;;;4946697;28;20394;-66
2021/04/25 09:23:27;;;;;;;;;;;;;;;;;;4938894;28;19930;-66
2021/04/25 09:25:54;;;;;;;;;;;;;;;;;;4942977;28;19934;-66
2021/04/25 09:28:20;;;;;;;;;;;;;;;;;;4939912;29;20259;-67
2021/04/25 09:30:48;;;;;;;;;;;;;;;;;;4948769;28;19927;-67
2021/04/25 09:33:14;;;;;;;;;;;;;;;;;;4949272;28;19930;-67
2021/04/25 09:35:41;;;;;;;;;;;;;;;;;;4948605;28;20053;-67
2021/04/25 09:38:07;;;;;;;;;;;;;;;;;;4943617;28;19972;-67
2021/04/25 09:40:34;;;;;;;;;;;;;;;;;;4950427;28;20017;-67
2021/04/25 09:43:01;;;;;;;;;;;;;;;;;;4951191;28;19957;-67
2021/04/25 09:45:29;;;;;;;;;;;;;;;;;;4933896;28;19930;-67
2021/04/25 09:47:55;;;;;;;;;;;;;;;;;;4947378;28;20021;-67
2021/04/25 09:50:22;;;;;;;;;;;;;;;;;;4961654;28;19939;-67
2021/04/25 09:52:49;;;;;;;;;;;;;;;;;;4974885;28;20316;-68
2021/04/25 09:55:17;;;;;;;;;;;;;;;;;;4950521;28;19935;-68
2021/04/25 09:57:44;;;;;;;;;;;;;;;;;;4948941;28;19927;-69
2021/04/25 10:00:10;;;;;;;;;;;;;;;;;;4964281;28;19933;-68
2021/04/25 10:02:37;;;;;;;;;;;;;;;;;;4949569;28;20009;-67
2021/04/25 10:05:03;;;;;;;;;;;;;;;;;;4949758;28;19931;-68
2021/04/25 10:07:30;;;;;;;;;;;;;;;;;;4949204;28;19930;-68
2021/04/25 10:09:56;;;;;;;;;;;;;;;;;;4949239;28;19927;-68
2021/04/25 10:12:23;;;;;;;;;;;;;;;;;;4941755;28;19930;-68
2021/04/25 10:14:51;;;;;;;;;;;;;;;;;;4954612;28;19937;-67
2021/04/25 10:17:17;;;;;;;;;;;;;;;;;;4995698;28;20405;-67
2021/04/25 10:19:44;;;;;;;;;;;;;;;;;;5007531;23;20025;-67
2021/04/25 10:22:10;;;;;;;;;;;;;;;;;;4988990;28;19950;-66
2021/04/25 10:24:36;;;;;;;;;;;;;;;;;;4986039;28;20342;-68
2021/04/25 10:27:03;;;;;;;;;;;;;;;;;;4986033;28;19945;-66
2021/04/25 10:29:29;;;;;;;;;;;;;;;;;;4982842;28;20017;-70
2021/04/25 10:31:57;;;;;;;;;;;;;;;;;;4971391;28;20012;-67
2021/04/25 10:34:24;;;;;;;;;;;;;;;;;;4953854;28;19926;-69
2021/04/25 10:36:51;;;;;;;;;;;;;;;;;;4966970;28;19926;-67
2021/04/25 10:39:17;;;;;;;;;;;;;;;;;;4967639;28;19927;-67
2021/04/25 10:41:44;;;;;;;;;;;;;;;;;;4969265;28;19926;-68
2021/04/25 10:44:10;;;;;;;;;;;;;;;;;;4969493;28;19973;-68
2021/04/25 10:46:37;;;;;;;;;;;;;;;;;;4968073;28;19936;-68
2021/04/25 10:49:03;;;;;;;;;;;;;;;;;;4967688;28;19934;-68
2021/04/25 10:51:30;;;;;;;;;;;;;;;;;;4970619;28;19926;-70
2021/04/25 10:53:57;;;;;;;;;;;;;;;;;;4972916;28;20022;-70
2021/04/25 10:56:23;;;;;;;;;;;;;;;;;;4978489;28;19976;-68
2021/04/25 10:58:49;;;;;;;;;;;;;;;;;;4984610;28;19926;-71
2021/04/25 11:01:16;;;;;;;;;;;;;;;;;;4983227;28;20008;-69
2021/04/25 11:03:42;;;;;;;;;;;;;;;;;;4984433;28;20201;-69
2021/04/25 11:06:09;;;;;;;;;;;;;;;;;;4974352;28;19934;-68
2021/04/25 11:08:39;;;;;;;;;;;;;;;;;;4964511;28;19977;-68
2021/04/25 11:11:07;;;;;;;;;;;;;;;;;;4968006;28;19930;-68
2021/04/25 11:13:34;;;;;;;;;;;;;;;;;;4965391;28;19931;-69
2021/04/25 11:16:01;;;;;;;;;;;;;;;;;;4963975;28;19926;-69
2021/04/25 11:18:27;;;;;;;;;;;;;;;;;;4968146;28;21261;-69
2021/04/25 11:20:54;;;;;;;;;;;;;;;;;;4969180;28;19930;-70
2021/04/25 11:23:20;;;;;;;;;;;;;;;;;;4975796;28;20378;-69
2021/04/25 11:25:47;;;;;;;;;;;;;;;;;;4969357;28;19930;-69
2021/04/25 11:28:13;;;;;;;;;;;;;;;;;;4968226;28;19926;-69
2021/04/25 11:30:41;;;;;;;;;;;;;;;;;;4961738;28;20350;-68
2021/04/25 11:33:07;;;;;;;;;;;;;;;;;;4964864;28;19926;-68
2021/04/25 11:35:37;;;;;;;;;;;;;;;;;;4969726;28;20392;-68
2021/04/25 11:38:03;;;;;;;;;;;;;;;;;;4962878;28;19932;-68
2021/04/25 11:40:31;;;;;;;;;;;;;;;;;;4969148;28;19933;-70
2021/04/25 11:42:58;;;;;;;;;;;;;;;;;;4962913;28;19926;-67
2021/04/25 11:45:24;;;;;;;;;;;;;;;;;;4965478;28;19985;-69
2021/04/25 11:47:50;;;;;;;;;;;;;;;;;;4961740;28;19995;-69
2021/04/25 11:50:18;;;;;;;;;;;;;;;;;;4963843;28;19926;-69
2021/04/25 11:52:44;;;;;;;;;;;;;;;;;;4966831;28;20547;-68
2021/04/25 11:55:11;;;;;;;;;;;;;;;;;;4963780;28;20321;-68
2021/04/25 11:57:38;;;;;;;;;;;;;;;;;;4966632;28;19926;-67
2021/04/25 12:00:04;;;;;;;;;;;;;;;;;;4969562;28;19969;-66
2021/04/25 12:02:31;;;;;;;;;;;;;;;;;;4963699;28;19927;-68
2021/04/25 12:04:57;;;;;;;;;;;;;;;;;;4947230;28;19933;-68
2021/04/25 12:07:24;;;;;;;;;;;;;;;;;;4965240;28;19927;-66
2021/04/25 12:09:50;;;;;;;;;;;;;;;;;;4965146;28;20043;-67
2021/04/25 12:12:18;;;;;;;;;;;;;;;;;;4966883;28;20428;-67
2021/04/25 12:14:45;;;;;;;;;;;;;;;;;;4966951;28;19933;-67
2021/04/25 12:17:12;;;;;;;;;;;;;;;;;;4968564;28;20409;-68
2021/04/25 12:19:39;;;;;;;;;;;;;;;;;;4951346;28;20584;-67
2021/04/25 12:22:05;;;;;;;;;;;;;;;;;;4960312;28;19988;-69
2021/04/25 12:24:32;;;;;;;;;;;;;;;;;;4967243;28;19934;-67
2021/04/25 12:26:58;;;;;;;;;;;;;;;;;;4965889;28;19981;-68
2021/04/25 12:29:25;;;;;;;;;;;;;;;;;;4967781;28;19973;-66
2021/04/25 12:31:51;;;;;;;;;;;;;;;;;;4967504;28;19930;-69
2021/04/25 12:34:18;;;;;;;;;;;;;;;;;;4965833;28;19949;-67
2021/04/25 12:36:45;;;;;;;;;;;;;;;;;;4970045;28;19926;-68
2021/04/25 12:39:11;;;;;;;;;;;;;;;;;;4969727;28;19936;-67
2021/04/25 12:41:38;;;;;;;;;;;;;;;;;;4969056;28;19926;-67
2021/04/25 12:44:04;;;;;;;;;;;;;;;;;;4973131;28;20017;-67
2021/04/25 12:46:31;;;;;;;;;;;;;;;;;;4976184;28;19969;-66
2021/04/25 12:48:57;;;;;;;;;;;;;;;;;;4980958;28;20028;-68
2021/04/25 12:51:24;;;;;;;;;;;;;;;;;;4983715;28;20143;-68
2021/04/25 12:53:50;;;;;;;;;;;;;;;;;;4973696;28;20401;-68
2021/04/25 12:56:18;;;;;;;;;;;;;;;;;;4958676;28;19930;-67
2021/04/25 12:58:45;;;;;;;;;;;;;;;;;;4975082;28;20293;-67
2021/04/25 13:01:12;;;;;;;;;;;;;;;;;;4972426;28;19934;-68
2021/04/25 13:03:43;;;;;;;;;;;;;;;;;;4975605;28;19933;-67
2021/04/25 13:06:17;;;;;;;;;;;;;;;;;;4967043;28;19930;-68
2021/04/25 13:08:43;;;;;;;;;;;;;;;;;;4968205;28;19945;-68
2021/04/25 13:11:11;;;;;;;;;;;;;;;;;;4972493;28;20178;-69
2021/04/25 13:13:38;;;;;;;;;;;;;;;;;;4969376;28;19927;-68
2021/04/25 13:16:04;;;;;;;;;;;;;;;;;;4968876;28;19971;-66
2021/04/25 13:18:31;;;;;;;;;;;;;;;;;;4962397;28;19930;-67
2021/04/25 13:20:57;;;;;;;;;;;;;;;;;;4963628;28;21392;-70
2021/04/25 13:23:24;;;;;;;;;;;;;;;;;;4964620;28;19941;-68
2021/04/25 13:25:50;;;;;;;;;;;;;;;;;;4961554;28;20302;-66
2021/04/25 13:28:17;;;;;;;;;;;;;;;;;;4966532;28;20092;-67
2021/04/25 13:30:43;;;;;;;;;;;;;;;;;;4964206;28;19973;-66
2021/04/25 13:33:10;;;;;;;;;;;;;;;;;;4960779;28;19977;-67
2021/04/25 13:35:36;;;;;;;;;;;;;;;;;;4965593;28;20432;-68
2021/04/25 13:38:03;;;;;;;;;;;;;;;;;;4964357;28;19933;-67
2021/04/25 13:40:35;;;;;;;;;;;;;;;;;;4962425;28;19933;-69
2021/04/25 13:43:01;;;;;;;;;;;;;;;;;;4965812;28;20020;-68
2021/04/25 13:45:28;;;;;;;;;;;;;;;;;;4963309;28;20366;-67
2021/04/25 13:47:54;;;;;;;;;;;;;;;;;;4961642;28;20394;-68
2021/04/25 13:50:21;;;;;;;;;;;;;;;;;;4964264;28;19927;-66
2021/04/25 13:52:47;;;;;;;;;;;;;;;;;;4964057;28;19926;-68
2021/04/25 13:55:14;;;;;;;;;;;;;;;;;;4948472;28;19934;-68
2021/04/25 13:57:40;;;;;;;;;;;;;;;;;;4966216;28;19926;-69
2021/04/25 14:00:07;;;;;;;;;;;;;;;;;;4961212;28;19927;-66
2021/04/25 14:02:34;;;;;;;;;;;;;;;;;;4963739;28;19926;-68
2021/04/25 14:05:00;;;;;;;;;;;;;;;;;;4966160;28;20304;-68
2021/04/25 14:07:28;;;;;;;;;;;;;;;;;;4965169;28;19934;-69
2021/04/25 14:09:55;;;;;;;;;;;;;;;;;;4963155;28;19926;-69
2021/04/25 14:12:23;;;;;;;;;;;;;;;;;;4963958;28;20450;-69
2021/04/25 14:14:49;;;;;;;;;;;;;;;;;;4967124;28;19926;-67
2021/04/25 14:17:16;;;;;;;;;;;;;;;;;;4965248;28;19927;-69
2021/04/25 14:19:42;;;;;;;;;;;;;;;;;;4960911;28;19979;-69
2021/04/25 14:22:09;;;;;;;;;;;;;;;;;;4964915;28;19932;-68
2021/04/25 14:24:35;;;;;;;;;;;;;;;;;;4965022;28;19996;-69
2021/04/25 14:27:02;;;;;;;;;;;;;;;;;;4971951;28;19933;-68
2021/04/25 14:29:28;;;;;;;;;;;;;;;;;;4961265;28;19965;-68
2021/04/25 14:31:57;;;;;;;;;;;;;;;;;;4963226;28;19926;-67
2021/04/25 14:34:31;;;;;;;;;;;;;;;;;;4964438;28;19926;-68
2021/04/25 14:36:58;;;;;;;;;;;;;;;;;;4963923;28;20352;-69
2021/04/25 14:39:24;;;;;;;;;;;;;;;;;;4963279;28;19937;-67
2021/04/25 14:41:51;;;;;;;;;;;;;;;;;;4961867;28;19926;-69
2021/04/25 14:44:17;;;;;;;;;;;;;;;;;;4974797;28;20401;-69
2021/04/25 14:46:44;;;;;;;;;;;;;;;;;;4967983;28;19930;-68
2021/04/25 14:49:11;;;;;;;;;;;;;;;;;;4962222;28;19926;-67
2021/04/25 14:51:38;;;;;;;;;;;;;;;;;;4963362;28;20290;-68
2021/04/25 14:54:08;;;;;;;;;;;;;;;;;;4961907;28;20456;-68
2021/04/25 14:56:34;;;;;;;;;;;;;;;;;;4965300;28;20325;-67
2021/04/25 14:59:01;;;;;;;;;;;;;;;;;;4964000;28;19933;-67
2021/04/25 15:01:28;;;;;;;;;;;;;;;;;;4968771;28;19927;-64
2021/04/25 15:03:54;;;;;;;;;;;;;;;;;;4967241;28;19926;-71
2021/04/25 15:06:21;;;;;;;;;;;;;;;;;;4965489;28;19979;-68
2021/04/25 15:08:48;;;;;;;;;;;;;;;;;;4965118;28;20021;-68
2021/04/25 15:11:14;;;;;;;;;;;;;;;;;;4965824;28;20017;-68
2021/04/25 15:13:41;;;;;;;;;;;;;;;;;;4958535;28;19926;-69
2021/04/25 15:16:07;;;;;;;;;;;;;;;;;;4961780;28;20378;-68
2021/04/25 15:18:37;;;;;;;;;;;;;;;;;;4970854;28;20017;-69
2021/04/25 15:21:05;;;;;;;;;;;;;;;;;;4954677;28;19977;-67
2021/04/25 15:23:32;;;;;;;;;;;;;;;;;;4972284;28;19933;-66
2021/04/25 15:26:01;;;;;;;;;;;;;;;;;;4954248;28;20376;-67
2021/04/25 15:28:28;;;;;;;;;;;;;;;;;;4974527;28;19926;-68
2021/04/25 15:30:54;;;;;;;;;;;;;;;;;;4972037;28;19933;-68
2021/04/25 15:33:21;;;;;;;;;;;;;;;;;;4971672;28;20266;-67
2021/04/25 15:35:47;;;;;;;;;;;;;;;;;;4970090;28;20185;-66
2021/04/25 15:38:16;;;;;;;;;;;;;;;;;;4967286;28;19926;-69
2021/04/25 15:40:43;;;;;;;;;;;;;;;;;;4984801;28;20416;-69
2021/04/25 15:43:09;;;;;;;;;;;;;;;;;;4967190;28;20398;-68
2021/04/25 15:45:36;;;;;;;;;;;;;;;;;;4955487;28;19969;-68
2021/04/25 15:48:04;;;;;;;;;;;;;;;;;;4971325;28;20404;-67
2021/04/25 15:50:31;;;;;;;;;;;;;;;;;;4973466;28;19992;-65
2021/04/25 15:52:58;;;;;;;;;;;;;;;;;;4976969;28;20016;-66
2021/04/25 15:55:24;;;;;;;;;;;;;;;;;;4994238;28;19934;-69
2021/04/25 15:57:51;;;;;;;;;;;;;;;;;;4969486;28;19931;-66
2021/04/25 16:00:17;;;;;;;;;;;;;;;;;;4969894;28;19926;-68
2021/04/25 16:02:44;;;;;;;;;;;;;;;;;;4973385;28;19974;-66
2021/04/25 16:05:12;;;;;;;;;;;;;;;;;;4972669;28;20393;-67
2021/04/25 16:07:39;;;;;;;;;;;;;;;;;;4972296;28;20024;-67
2021/04/25 16:10:06;;;;;;;;;;;;;;;;;;4971324;28;19926;-66
2021/04/25 16:12:33;;;;;;;;;;;;;;;;;;4958341;28;19931;-67
2021/04/25 16:15:02;;;;;;;;;;;;;;;;;;4972138;28;20008;-68
2021/04/25 16:17:29;;;;;;;;;;;;;;;;;;4972380;28;19969;-67
2021/04/25 16:19:55;;;;;;;;;;;;;;;;;;4990910;22;19926;-65
2021/04/25 16:22:22;;;;;;;;;;;;;;;;;;4984191;28;19961;-66
2021/04/25 16:24:48;;;;;;;;;;;;;;;;;;4983239;28;20009;-66
2021/04/25 16:27:15;;;;;;;;;;;;;;;;;;4983549;28;19976;-66
2021/04/25 16:29:44;;;;;;;;;;;;;;;;;;4978876;28;20009;-66
2021/04/25 16:32:10;;;;;;;;;;;;;;;;;;4948568;28;19953;-66
2021/04/25 16:34:37;;;;;;;;;;;;;;;;;;4966649;28;19984;-66
2021/04/25 16:37:03;;;;;;;;;;;;;;;;;;4968918;28;20400;-65
2021/04/25 16:39:30;;;;;;;;;;;;;;;;;;4966371;28;20028;-67
2021/04/25 16:41:58;;;;;;;;;;;;;;;;;;4966019;28;19926;-66